Time;durP1;ratioP1;P1;durP2;ratioP2;P2;SDS_P1;SDS_P2;PMS_P1;PMS_P2;Temp;Humidity;BMP_temperature;BMP_pressure;BME280_temperature;BME280_humidity;BME280_pressure;Samples;Min_cycle;Max_cycle;Signal;HPM_P1;HPM_P2
2022/06/01 00:00:29;;;;;;;;;;;20.10;99.90;;;;;;5086963;28;20016;-72
2022/06/01 00:02:56;;;;;;;;;;;20.10;99.90;;;;;;5071204;28;20006;-73
2022/06/01 00:05:22;;;;;;;;;;;20.10;99.90;;;;;;5090435;28;19935;-73
2022/06/01 00:07:48;;;;;;;;;;;20.10;99.90;;;;;;5087903;28;20056;-73
2022/06/01 00:10:14;;;;;;;;;;;20.00;99.90;;;;;;5086150;28;19916;-73
2022/06/01 00:12:40;;;;;;;;;;;20.10;99.90;;;;;;5080931;28;19944;-74
2022/06/01 00:15:06;;;;;;;;;;;20.00;99.90;;;;;;5088512;28;19962;-74
2022/06/01 00:17:31;;;;;;;;;;;20.00;99.90;;;;;;5084475;28;19912;-74
2022/06/01 00:19:57;;;;;;;;;;;19.90;99.90;;;;;;5078801;28;19978;-74
2022/06/01 00:22:23;;;;;;;;;;;19.90;99.90;;;;;;5059076;28;19913;-72
2022/06/01 00:24:48;;;;;;;;;;;19.90;99.90;;;;;;5083927;28;20294;-73
2022/06/01 00:27:15;;;;;;;;;;;19.90;99.90;;;;;;5073520;28;20370;-73
2022/06/01 00:29:41;;;;;;;;;;;19.90;99.90;;;;;;5089279;28;19916;-73
2022/06/01 00:32:08;;;;;;;;;;;20.00;99.90;;;;;;5087436;28;19916;-73
2022/06/01 00:34:34;;;;;;;;;;;20.00;99.90;;;;;;5083664;28;20269;-73
2022/06/01 00:36:59;;;;;;;;;;;19.90;99.90;;;;;;5081038;28;19916;-73
2022/06/01 00:39:25;;;;;;;;;;;20.00;99.90;;;;;;5088255;28;19958;-73
2022/06/01 00:41:51;;;;;;;;;;;20.00;99.90;;;;;;5083262;28;19916;-74
2022/06/01 00:44:16;;;;;;;;;;;20.10;99.90;;;;;;5070482;28;20011;-73
2022/06/01 00:46:42;;;;;;;;;;;20.10;99.90;;;;;;5085662;28;19947;-73
2022/06/01 00:49:19;;;;;;;;;;;20.10;99.90;;;;;;5089712;28;19912;-73
2022/06/01 00:51:46;;;;;;;;;;;20.00;99.90;;;;;;5062623;28;19917;-73
2022/06/01 00:54:12;;;;;;;;;;;20.00;99.90;;;;;;5063669;28;20366;-73
2022/06/01 00:56:46;;;;;;;;;;;19.90;99.90;;;;;;5087279;28;19942;-74
2022/06/01 00:59:15;;;;;;;;;;;19.90;99.90;;;;;;5084852;28;19912;-73
2022/06/01 01:01:41;;;;;;;;;;;19.90;99.90;;;;;;5068108;28;19912;-73
2022/06/01 01:04:07;;;;;;;;;;;19.80;99.90;;;;;;5086565;28;19916;-73
2022/06/01 01:06:35;;;;;;;;;;;19.70;99.90;;;;;;5081094;28;20003;-73
2022/06/01 01:09:02;;;;;;;;;;;19.70;99.90;;;;;;5057210;28;19912;-72
2022/06/01 01:11:46;;;;;;;;;;;19.70;99.90;;;;;;5085542;28;19964;-72
2022/06/01 01:14:13;;;;;;;;;;;19.60;99.90;;;;;;5074556;28;19912;-73
2022/06/01 01:16:39;;;;;;;;;;;19.70;99.90;;;;;;5060373;28;19912;-73
2022/06/01 01:19:13;;;;;;;;;;;19.60;99.90;;;;;;5067564;28;19912;-72
2022/06/01 01:21:46;;;;;;;;;;;19.60;99.90;;;;;;5085960;28;20006;-73
2022/06/01 01:24:18;;;;;;;;;;;19.60;99.90;;;;;;5082689;28;19991;-73
2022/06/01 01:26:49;;;;;;;;;;;19.60;99.90;;;;;;5065188;28;19912;-73
2022/06/01 01:29:15;;;;;;;;;;;19.60;99.90;;;;;;5066779;28;19919;-73
2022/06/01 01:31:43;;;;;;;;;;;19.60;99.90;;;;;;5082009;28;19920;-73
2022/06/01 01:34:09;;;;;;;;;;;19.60;99.90;;;;;;5085329;28;19908;-73
2022/06/01 01:36:55;;;;;;;;;;;19.50;99.90;;;;;;5086098;28;20010;-73
2022/06/01 01:39:20;;;;;;;;;;;19.50;99.90;;;;;;5080353;28;20593;-72
2022/06/01 01:41:48;;;;;;;;;;;19.60;99.90;;;;;;5091807;28;19915;-72
2022/06/01 01:44:16;;;;;;;;;;;19.50;99.90;;;;;;5073477;28;19963;-72
2022/06/01 01:46:47;;;;;;;;;;;19.60;99.90;;;;;;5066102;28;19931;-73
2022/06/01 01:49:16;;;;;;;;;;;19.50;99.90;;;;;;5081269;28;19995;-73
2022/06/01 01:51:42;;;;;;;;;;;19.50;99.90;;;;;;5082735;28;19912;-72
2022/06/01 01:54:16;;;;;;;;;;;19.50;99.90;;;;;;5070299;28;19919;-73
2022/06/01 01:56:57;;;;;;;;;;;19.50;99.90;;;;;;5082282;28;19908;-73
2022/06/01 01:59:35;;;;;;;;;;;19.50;99.90;;;;;;5079888;28;19912;-73
2022/06/01 02:02:24;;;;;;;;;;;19.60;99.90;;;;;;5086324;28;19915;-73
2022/06/01 02:08:05;;;;;;;;;;;19.60;99.90;;;;;;5082673;28;20322;-73
2022/06/01 02:13:16;;;;;;;;;;;19.60;99.90;;;;;;5086048;28;19914;-73
2022/06/01 02:15:42;;;;;;;;;;;19.60;99.90;;;;;;5057718;28;19912;-72
2022/06/01 02:18:12;;;;;;;;;;;19.70;99.90;;;;;;5065478;28;20332;-73
2022/06/01 02:20:50;;;;;;;;;;;19.70;99.90;;;;;;5085550;28;19919;-73
2022/06/01 02:23:16;;;;;;;;;;;19.60;99.90;;;;;;5084245;28;19969;-72
2022/06/01 02:25:44;;;;;;;;;;;19.60;99.90;;;;;;5086056;28;20285;-73
2022/06/01 02:28:10;;;;;;;;;;;19.50;99.90;;;;;;5084459;28;19973;-72
2022/06/01 02:30:40;;;;;;;;;;;19.50;99.90;;;;;;5083333;28;20067;-73
2022/06/01 02:33:08;;;;;;;;;;;19.40;99.90;;;;;;5076990;28;20082;-73
2022/06/01 02:35:36;;;;;;;;;;;19.40;99.90;;;;;;5077730;28;19959;-73
2022/06/01 02:38:04;;;;;;;;;;;19.50;99.90;;;;;;5084526;28;20420;-74
2022/06/01 02:40:30;;;;;;;;;;;19.40;99.90;;;;;;5084407;28;19991;-74
2022/06/01 02:42:56;;;;;;;;;;;19.40;99.90;;;;;;5086743;28;20329;-74
2022/06/01 02:45:23;;;;;;;;;;;19.40;99.90;;;;;;5064763;28;19919;-73
2022/06/01 02:47:50;;;;;;;;;;;19.50;99.90;;;;;;5067588;28;19931;-73
2022/06/01 02:50:24;;;;;;;;;;;19.50;99.90;;;;;;5085015;28;20085;-74
2022/06/01 02:52:50;;;;;;;;;;;19.50;99.90;;;;;;5060770;28;19913;-74
2022/06/01 02:55:17;;;;;;;;;;;19.50;99.90;;;;;;5083859;28;19919;-74
2022/06/01 02:57:42;;;;;;;;;;;19.40;99.90;;;;;;5079932;28;19916;-73
2022/06/01 03:00:17;;;;;;;;;;;19.30;99.90;;;;;;5065632;28;20439;-73
2022/06/01 03:02:47;;;;;;;;;;;19.30;99.90;;;;;;5079746;28;19966;-73
2022/06/01 03:05:13;;;;;;;;;;;19.20;99.90;;;;;;5077927;28;19912;-73
2022/06/01 03:07:40;;;;;;;;;;;19.10;99.90;;;;;;5083756;28;19920;-73
2022/06/01 03:10:05;;;;;;;;;;;19.10;99.90;;;;;;5086344;28;19927;-72
2022/06/01 03:12:31;;;;;;;;;;;19.00;99.90;;;;;;5082116;28;19912;-72
2022/06/01 03:14:56;;;;;;;;;;;19.00;99.90;;;;;;5087669;28;20336;-73
2022/06/01 03:17:22;;;;;;;;;;;18.90;99.90;;;;;;5060567;28;19931;-74
2022/06/01 03:19:48;;;;;;;;;;;18.90;99.90;;;;;;5089183;28;19956;-74
2022/06/01 03:22:14;;;;;;;;;;;18.90;99.90;;;;;;5082230;28;19916;-73
2022/06/01 03:24:40;;;;;;;;;;;18.90;99.90;;;;;;5072922;28;19920;-73
2022/06/01 03:27:07;;;;;;;;;;;18.90;99.90;;;;;;5088253;28;19999;-73
2022/06/01 03:29:33;;;;;;;;;;;18.90;99.90;;;;;;5086465;28;19935;-73
2022/06/01 03:31:59;;;;;;;;;;;18.90;99.90;;;;;;5087457;28;19916;-73
2022/06/01 03:34:26;;;;;;;;;;;19.00;99.90;;;;;;5086448;28;19912;-73
2022/06/01 03:36:52;;;;;;;;;;;19.00;99.90;;;;;;5087139;28;19919;-74
2022/06/01 03:39:17;;;;;;;;;;;19.10;99.90;;;;;;5074560;28;19920;-73
2022/06/01 03:41:43;;;;;;;;;;;19.00;99.90;;;;;;5087748;28;19912;-73
2022/06/01 03:46:59;;;;;;;;;;;19.10;99.90;;;;;;5086982;28;19953;-73
2022/06/01 03:49:25;;;;;;;;;;;19.10;99.90;;;;;;5066876;28;19912;-72
2022/06/01 03:51:50;;;;;;;;;;;19.10;99.90;;;;;;5072278;28;19937;-72
2022/06/01 03:54:16;;;;;;;;;;;19.00;99.90;;;;;;5062275;28;19925;-73
2022/06/01 03:56:43;;;;;;;;;;;19.10;99.90;;;;;;5067636;28;20312;-73
2022/06/01 03:59:08;;;;;;;;;;;19.20;99.90;;;;;;5086109;28;20053;-74
2022/06/01 04:01:34;;;;;;;;;;;19.20;99.90;;;;;;5067035;28;19970;-74
2022/06/01 04:04:00;;;;;;;;;;;19.30;99.90;;;;;;5074064;28;19916;-74
2022/06/01 04:06:25;;;;;;;;;;;19.20;99.90;;;;;;5062352;28;20393;-73
2022/06/01 04:08:51;;;;;;;;;;;19.20;99.90;;;;;;5089080;28;19918;-73
2022/06/01 04:11:16;;;;;;;;;;;19.10;99.90;;;;;;5087791;28;19938;-73
2022/06/01 04:13:42;;;;;;;;;;;19.20;99.90;;;;;;5080188;28;19920;-72
2022/06/01 04:16:07;;;;;;;;;;;19.20;99.90;;;;;;5066190;28;19912;-72
2022/06/01 04:18:33;;;;;;;;;;;19.20;99.90;;;;;;5079783;28;20326;-72
2022/06/01 04:20:59;;;;;;;;;;;19.20;99.90;;;;;;5066482;28;19964;-73
2022/06/01 04:23:24;;;;;;;;;;;19.20;99.90;;;;;;5083578;28;19912;-73
2022/06/01 04:25:50;;;;;;;;;;;19.20;99.90;;;;;;5071996;28;20287;-71
2022/06/01 04:28:15;;;;;;;;;;;19.30;99.90;;;;;;5086444;28;19916;-71
2022/06/01 04:30:41;;;;;;;;;;;19.30;99.90;;;;;;5061428;28;20254;-72
2022/06/01 04:33:10;;;;;;;;;;;19.50;99.90;;;;;;5068923;28;19916;-73
2022/06/01 04:35:36;;;;;;;;;;;19.50;99.90;;;;;;5069849;28;20012;-72
2022/06/01 04:38:14;;;;;;;;;;;19.60;99.90;;;;;;5089656;28;19921;-73
2022/06/01 04:40:44;;;;;;;;;;;19.60;99.90;;;;;;5071358;28;20313;-73
2022/06/01 04:43:10;;;;;;;;;;;19.60;99.90;;;;;;5085494;28;20360;-74
2022/06/01 04:45:36;;;;;;;;;;;19.60;99.90;;;;;;5080447;28;19913;-71
2022/06/01 04:48:02;;;;;;;;;;;19.70;99.90;;;;;;5087482;28;19950;-71
2022/06/01 04:50:27;;;;;;;;;;;19.80;99.90;;;;;;5071088;28;19964;-75
2022/06/01 04:52:53;;;;;;;;;;;19.90;99.90;;;;;;5059156;28;19912;-73
2022/06/01 04:55:18;;;;;;;;;;;19.90;99.90;;;;;;5086627;28;19943;-72
2022/06/01 04:57:45;;;;;;;;;;;20.10;99.90;;;;;;5083885;28;19928;-71
2022/06/01 05:00:11;;;;;;;;;;;20.10;99.90;;;;;;5087710;28;20289;-71
2022/06/01 05:02:37;;;;;;;;;;;20.20;99.90;;;;;;5082956;28;19923;-72
2022/06/01 05:05:02;;;;;;;;;;;20.10;99.90;;;;;;5086863;28;19998;-73
2022/06/01 05:07:28;;;;;;;;;;;20.20;99.90;;;;;;5074689;28;19995;-73
2022/06/01 05:09:54;;;;;;;;;;;20.30;99.90;;;;;;5087522;28;19912;-71
2022/06/01 05:12:20;;;;;;;;;;;20.40;99.90;;;;;;5072395;28;19955;-72
2022/06/01 05:14:45;;;;;;;;;;;20.40;99.90;;;;;;5086990;28;20338;-72
2022/06/01 05:17:11;;;;;;;;;;;20.60;99.90;;;;;;5087476;28;20262;-70
2022/06/01 05:19:36;;;;;;;;;;;20.60;99.90;;;;;;5066584;28;20351;-70
2022/06/01 05:22:02;;;;;;;;;;;20.60;99.90;;;;;;5089933;28;20804;-72
2022/06/01 05:24:28;;;;;;;;;;;20.70;99.90;;;;;;5088438;28;19912;-73
2022/06/01 05:26:53;;;;;;;;;;;20.80;99.90;;;;;;5059775;28;19916;-72
2022/06/01 05:29:19;;;;;;;;;;;21.00;99.90;;;;;;5064689;28;19919;-70
2022/06/01 05:31:45;;;;;;;;;;;21.10;99.90;;;;;;5081551;28;20361;-70
2022/06/01 05:34:10;;;;;;;;;;;21.10;99.90;;;;;;5084515;28;19919;-71
2022/06/01 05:36:36;;;;;;;;;;;21.20;99.90;;;;;;5083726;28;19920;-70
2022/06/01 05:39:03;;;;;;;;;;;21.20;99.90;;;;;;5082836;28;19912;-71
2022/06/01 05:41:28;;;;;;;;;;;21.30;99.90;;;;;;5087359;28;19955;-71
2022/06/01 05:43:54;;;;;;;;;;;21.40;99.90;;;;;;5070413;28;20338;-71
2022/06/01 05:46:21;;;;;;;;;;;21.50;99.90;;;;;;5086947;28;19977;-70
2022/06/01 05:48:47;;;;;;;;;;;21.60;99.90;;;;;;5060887;28;19942;-72
2022/06/01 05:51:12;;;;;;;;;;;21.80;99.90;;;;;;5082528;28;19936;-72
2022/06/01 05:53:38;;;;;;;;;;;21.90;99.90;;;;;;5062186;28;19951;-71
2022/06/01 05:56:03;;;;;;;;;;;22.00;99.90;;;;;;5072127;28;19975;-73
2022/06/01 05:58:29;;;;;;;;;;;22.00;99.90;;;;;;5082594;28;19916;-70
2022/06/01 06:00:56;;;;;;;;;;;22.20;99.90;;;;;;5069571;28;20012;-70
2022/06/01 06:03:26;;;;;;;;;;;22.20;99.90;;;;;;5085777;28;20094;-71
2022/06/01 06:09:02;;;;;;;;;;;22.30;99.90;;;;;;5020600;28;20044;-70
2022/06/01 06:11:29;;;;;;;;;;;22.50;99.90;;;;;;5015851;28;19930;-71
2022/06/01 06:13:55;;;;;;;;;;;22.50;99.90;;;;;;5052677;28;19912;-71
2022/06/01 06:16:21;;;;;;;;;;;22.70;99.90;;;;;;5085085;28;19916;-70
2022/06/01 06:18:46;;;;;;;;;;;22.90;99.90;;;;;;5087645;28;19943;-70
2022/06/01 06:21:12;;;;;;;;;;;23.00;99.90;;;;;;5082863;28;20289;-70
2022/06/01 06:23:38;;;;;;;;;;;23.10;99.90;;;;;;5079183;28;19998;-70
2022/06/01 06:26:03;;;;;;;;;;;23.10;99.90;;;;;;5074565;28;19923;-70
2022/06/01 06:28:30;;;;;;;;;;;23.20;99.90;;;;;;5066439;28;20346;-70
2022/06/01 06:30:56;;;;;;;;;;;23.20;99.90;;;;;;5065993;28;20328;-70
2022/06/01 06:33:21;;;;;;;;;;;23.20;99.90;;;;;;5069557;28;19965;-70
2022/06/01 06:35:54;;;;;;;;;;;23.20;99.90;;;;;;5083531;28;19942;-71
2022/06/01 06:38:20;;;;;;;;;;;23.40;99.90;;;;;;5092470;28;19912;-71
2022/06/01 06:40:45;;;;;;;;;;;23.40;99.90;;;;;;5080760;28;19927;-71
2022/06/01 06:43:11;;;;;;;;;;;23.20;99.90;;;;;;5087750;28;19919;-70
2022/06/01 06:45:37;;;;;;;;;;;23.20;99.90;;;;;;5063439;28;19919;-71
2022/06/01 06:48:02;;;;;;;;;;;23.20;99.90;;;;;;5073702;28;19908;-71
2022/06/01 06:50:28;;;;;;;;;;;23.30;99.90;;;;;;5073461;28;19951;-71
2022/06/01 06:52:53;;;;;;;;;;;23.40;99.90;;;;;;5082388;28;19935;-72
2022/06/01 06:55:19;;;;;;;;;;;23.60;99.90;;;;;;5071901;28;19969;-72
2022/06/01 06:57:45;;;;;;;;;;;23.80;99.90;;;;;;5088635;28;19998;-71
2022/06/01 07:00:11;;;;;;;;;;;24.00;99.90;;;;;;5084659;28;19916;-71
2022/06/01 07:02:37;;;;;;;;;;;24.10;99.90;;;;;;5087335;28;19962;-71
2022/06/01 07:05:03;;;;;;;;;;;24.20;99.90;;;;;;5083127;28;19947;-71
2022/06/01 07:07:29;;;;;;;;;;;24.30;99.90;;;;;;5085008;28;19916;-72
2022/06/01 07:09:55;;;;;;;;;;;24.30;99.90;;;;;;5083615;28;19986;-70
2022/06/01 07:12:20;;;;;;;;;;;24.30;99.90;;;;;;5068186;28;19924;-71
2022/06/01 07:14:46;;;;;;;;;;;24.50;99.90;;;;;;5068572;28;20370;-72
2022/06/01 07:17:11;;;;;;;;;;;24.40;99.90;;;;;;5090298;28;19999;-71
2022/06/01 07:19:37;;;;;;;;;;;24.40;99.90;;;;;;5069906;28;19912;-70
2022/06/01 07:22:03;;;;;;;;;;;24.40;99.90;;;;;;5087614;28;19912;-71
2022/06/01 07:24:28;;;;;;;;;;;24.40;99.90;;;;;;5086967;28;20389;-72
2022/06/01 07:26:54;;;;;;;;;;;24.30;99.90;;;;;;5088376;28;19916;-71
2022/06/01 07:29:20;;;;;;;;;;;24.30;99.90;;;;;;5071428;28;19912;-72
2022/06/01 07:31:46;;;;;;;;;;;24.40;99.90;;;;;;5086805;28;19922;-72
2022/06/01 07:34:12;;;;;;;;;;;24.50;99.90;;;;;;5086740;28;19973;-71
2022/06/01 07:36:37;;;;;;;;;;;24.30;99.90;;;;;;5087813;28;19916;-71
2022/06/01 07:44:33;;;;;;;;;;;24.00;99.90;;;;;;5083207;28;19979;-72
2022/06/01 07:46:58;;;;;;;;;;;24.00;99.90;;;;;;5066805;28;19917;-72
2022/06/01 07:49:25;;;;;;;;;;;23.90;99.90;;;;;;5083556;28;19920;-71
2022/06/01 07:51:51;;;;;;;;;;;23.90;99.90;;;;;;5082509;28;19916;-71
2022/06/01 07:54:17;;;;;;;;;;;24.00;99.90;;;;;;5063530;28;20542;-72
2022/06/01 07:56:43;;;;;;;;;;;24.00;99.90;;;;;;5075270;28;19908;-71
2022/06/01 07:59:09;;;;;;;;;;;24.00;99.90;;;;;;5074706;28;20022;-72
2022/06/01 08:01:36;;;;;;;;;;;24.00;99.90;;;;;;5069040;28;19913;-72
2022/06/01 08:04:03;;;;;;;;;;;24.00;99.90;;;;;;5087076;28;19912;-71
2022/06/01 08:06:29;;;;;;;;;;;23.90;99.90;;;;;;5086674;28;20326;-71
2022/06/01 08:08:55;;;;;;;;;;;23.70;99.90;;;;;;5073738;28;20016;-71
2022/06/01 08:13:06;;;;;;;;;;;23.60;99.90;;;;;;5075579;28;19966;-71
2022/06/01 08:14:06;;;;;;;;;;;23.50;99.90;;;;;;5098577;28;20002;-71
2022/06/01 08:16:32;;;;;;;;;;;23.60;99.90;;;;;;5082123;28;19908;-71
2022/06/01 08:18:58;;;;;;;;;;;23.50;99.90;;;;;;5090772;28;19908;-70
2022/06/01 08:21:24;;;;;;;;;;;23.60;99.90;;;;;;5106023;28;19992;-71
2022/06/01 08:23:49;;;;;;;;;;;23.50;99.90;;;;;;5108638;28;19916;-70
2022/06/01 08:26:15;;;;;;;;;;;23.30;99.90;;;;;;5097299;28;19939;-71
2022/06/01 08:28:40;;;;;;;;;;;23.20;99.90;;;;;;5100167;28;19980;-70
2022/06/01 08:31:06;;;;;;;;;;;23.30;99.90;;;;;;5073268;28;19962;-72
2022/06/01 08:33:32;;;;;;;;;;;23.30;99.90;;;;;;5067290;28;19999;-71
2022/06/01 08:35:57;;;;;;;;;;;23.40;99.90;;;;;;5086240;28;19960;-71
2022/06/01 08:38:23;;;;;;;;;;;23.50;99.90;;;;;;5077483;28;19944;-71
2022/06/01 08:40:52;;;;;;;;;;;23.60;99.90;;;;;;5072503;28;19988;-71
2022/06/01 08:43:19;;;;;;;;;;;23.60;99.90;;;;;;5070685;28;20419;-71
2022/06/01 08:45:47;;;;;;;;;;;23.60;99.90;;;;;;5091898;28;19916;-71
2022/06/01 08:48:19;;;;;;;;;;;23.60;99.90;;;;;;5084081;28;19951;-72
2022/06/01 08:50:45;;;;;;;;;;;23.60;99.90;;;;;;5073845;28;19912;-72
2022/06/01 08:53:10;;;;;;;;;;;23.60;99.90;;;;;;5074893;28;19908;-71
2022/06/01 08:55:55;;;;;;;;;;;23.60;99.90;;;;;;5063812;28;19908;-71
2022/06/01 08:58:36;;;;;;;;;;;23.60;99.90;;;;;;5075969;28;19908;-71
2022/06/01 09:01:09;;;;;;;;;;;23.50;99.90;;;;;;5076669;28;19912;-71
2022/06/01 09:04:10;;;;;;;;;;;23.30;99.90;;;;;;5085379;28;19908;-71
2022/06/01 09:06:41;;;;;;;;;;;23.20;99.90;;;;;;5055904;28;20062;-72
2022/06/01 09:09:10;;;;;;;;;;;23.10;99.90;;;;;;5081715;28;19912;-72
2022/06/01 09:11:38;;;;;;;;;;;23.20;99.90;;;;;;5070313;28;20429;-72
2022/06/01 09:14:20;;;;;;;;;;;23.30;99.90;;;;;;5094361;28;19916;-71
2022/06/01 09:16:50;;;;;;;;;;;23.40;99.90;;;;;;5070142;28;19912;-71
2022/06/01 09:19:20;;;;;;;;;;;23.30;99.90;;;;;;5088000;28;19919;-71
2022/06/01 09:24:42;;;;;;;;;;;23.50;99.90;;;;;;5087168;28;19965;-71
2022/06/01 09:27:09;;;;;;;;;;;23.40;99.90;;;;;;5084716;28;19967;-71
2022/06/01 09:29:43;;;;;;;;;;;23.50;99.90;;;;;;5072569;28;19916;-71
2022/06/01 09:32:23;;;;;;;;;;;23.70;99.90;;;;;;5078458;28;19916;-72
2022/06/01 09:34:49;;;;;;;;;;;23.60;99.90;;;;;;5065152;28;20302;-71
2022/06/01 09:37:14;;;;;;;;;;;23.60;99.90;;;;;;5076701;28;19923;-71
2022/06/01 09:39:48;;;;;;;;;;;23.50;99.90;;;;;;5080768;28;19912;-71
2022/06/01 09:42:16;;;;;;;;;;;23.50;99.90;;;;;;5081592;28;20346;-70
2022/06/01 09:44:42;;;;;;;;;;;23.50;99.90;;;;;;5066420;28;19959;-70
2022/06/01 09:47:08;;;;;;;;;;;23.60;99.90;;;;;;5073245;28;20011;-71
2022/06/01 09:49:36;;;;;;;;;;;23.70;99.90;;;;;;5092461;28;19953;-71
2022/06/01 09:52:10;;;;;;;;;;;23.80;99.90;;;;;;5083034;28;20411;-72
2022/06/01 09:54:41;;;;;;;;;;;23.80;99.90;;;;;;5091141;28;19956;-72
2022/06/01 09:57:24;;;;;;;;;;;23.80;99.90;;;;;;5068387;28;20007;-71
2022/06/01 10:08:12;;;;;;;;;;;23.60;99.90;;;;;;5086720;28;19970;-70
2022/06/01 10:10:39;;;;;;;;;;;23.50;99.90;;;;;;5086338;28;19916;-71
2022/06/01 10:13:06;;;;;;;;;;;23.60;99.90;;;;;;5088484;28;19916;-71
2022/06/01 10:15:35;;;;;;;;;;;23.50;99.90;;;;;;5061978;28;19912;-71
2022/06/01 10:18:04;;;;;;;;;;;23.50;99.90;;;;;;5087691;28;19908;-72
2022/06/01 10:20:32;;;;;;;;;;;23.60;99.90;;;;;;5090581;28;19912;-72
2022/06/01 10:23:04;;;;;;;;;;;23.60;99.90;;;;;;5061309;28;19915;-72
2022/06/01 10:25:29;;;;;;;;;;;23.60;99.90;;;;;;5092464;28;19916;-71
2022/06/01 10:28:06;;;;;;;;;;;23.60;99.90;;;;;;5071913;28;19930;-72
2022/06/01 10:30:39;;;;;;;;;;;23.70;99.90;;;;;;5054080;28;19924;-71
2022/06/01 10:33:08;;;;;;;;;;;23.90;99.90;;;;;;5060895;28;19970;-72
2022/06/01 10:35:37;;;;;;;;;;;23.80;99.90;;;;;;5084788;28;19908;-72
2022/06/01 10:38:21;;;;;;;;;;;23.70;99.90;;;;;;5070207;28;19912;-73
2022/06/01 10:40:47;;;;;;;;;;;23.60;99.90;;;;;;5088273;28;19912;-72
2022/06/01 10:43:31;;;;;;;;;;;23.80;99.90;;;;;;5080208;28;19952;-71
2022/06/01 10:46:26;;;;;;;;;;;23.80;99.90;;;;;;5078550;28;19990;-72
2022/06/01 10:48:55;;;;;;;;;;;23.90;99.90;;;;;;5036423;28;20343;-71
2022/06/01 10:51:30;;;;;;;;;;;23.90;99.90;;;;;;5072993;28;20381;-71
2022/06/01 10:54:20;;;;;;;;;;;23.90;99.90;;;;;;5078674;28;20336;-72
2022/06/01 10:56:46;;;;;;;;;;;23.90;99.90;;;;;;5082940;28;19909;-72
2022/06/01 10:59:13;;;;;;;;;;;23.80;99.90;;;;;;5055154;28;20326;-72
2022/06/01 11:01:45;;;;;;;;;;;23.90;99.90;;;;;;5072454;28;19913;-72
2022/06/01 11:04:22;;;;;;;;;;;23.80;99.90;;;;;;5090932;28;19920;-72
2022/06/01 11:07:06;;;;;;;;;;;24.00;99.90;;;;;;5091397;28;19919;-72
2022/06/01 11:09:34;;;;;;;;;;;24.00;99.90;;;;;;5071385;28;19999;-73
2022/06/01 11:12:00;;;;;;;;;;;23.90;99.90;;;;;;5087629;28;20266;-72
2022/06/01 11:14:52;;;;;;;;;;;24.00;99.90;;;;;;5081424;28;19923;-71
2022/06/01 11:17:20;;;;;;;;;;;24.10;99.90;;;;;;5072295;28;19962;-71
2022/06/01 11:20:02;;;;;;;;;;;24.10;99.90;;;;;;5072801;28;19919;-72
2022/06/01 11:22:30;;;;;;;;;;;24.00;99.90;;;;;;5088721;28;19920;-72
2022/06/01 11:25:03;;;;;;;;;;;23.80;99.90;;;;;;5081233;28;19938;-71
2022/06/01 11:27:40;;;;;;;;;;;23.70;99.90;;;;;;5071748;28;19908;-72
2022/06/01 11:30:09;;;;;;;;;;;23.60;99.90;;;;;;5074961;28;19928;-71
2022/06/01 11:32:42;;;;;;;;;;;23.60;99.90;;;;;;5097005;28;19916;-72
2022/06/01 11:35:13;;;;;;;;;;;23.70;99.90;;;;;;5089168;28;20436;-71
2022/06/01 11:37:50;;;;;;;;;;;23.70;99.90;;;;;;5079027;28;19913;-71
2022/06/01 11:40:18;;;;;;;;;;;23.70;99.90;;;;;;5082023;28;19916;-72
2022/06/01 11:42:56;;;;;;;;;;;23.70;99.90;;;;;;5090394;28;19958;-72
2022/06/01 11:45:26;;;;;;;;;;;23.70;99.90;;;;;;5075767;28;19923;-71
2022/06/01 11:47:53;;;;;;;;;;;23.70;99.90;;;;;;5092304;28;20065;-71
2022/06/01 11:50:24;;;;;;;;;;;23.80;99.90;;;;;;5074224;28;20516;-69
2022/06/01 11:52:56;;;;;;;;;;;23.80;99.90;;;;;;5078885;28;19995;-69
2022/06/01 11:55:24;;;;;;;;;;;24.00;99.90;;;;;;5064624;28;19919;-68
2022/06/01 11:58:04;;;;;;;;;;;24.00;99.90;;;;;;5086833;28;19919;-69
2022/06/01 12:00:41;;;;;;;;;;;24.20;99.90;;;;;;5100403;28;19965;-69
2022/06/01 12:03:15;;;;;;;;;;;24.10;99.90;;;;;;5075591;28;20431;-69
2022/06/01 12:05:59;;;;;;;;;;;24.30;99.90;;;;;;5096407;28;19912;-69
2022/06/01 12:08:30;;;;;;;;;;;24.30;99.90;;;;;;5077959;28;19912;-69
2022/06/01 12:10:58;;;;;;;;;;;24.30;99.90;;;;;;5088678;28;19943;-69
2022/06/01 12:13:28;;;;;;;;;;;24.50;99.90;;;;;;5081091;28;19913;-68
2022/06/01 12:16:03;;;;;;;;;;;24.60;99.90;;;;;;5070081;28;20251;-70
2022/06/01 12:18:29;;;;;;;;;;;24.70;99.90;;;;;;5062130;28;19931;-69
2022/06/01 12:21:14;;;;;;;;;;;24.60;99.90;;;;;;5063023;28;19976;-70
2022/06/01 12:29:31;;;;;;;;;;;24.70;99.90;;;;;;5089275;28;19919;-69
2022/06/01 12:31:57;;;;;;;;;;;24.40;99.90;;;;;;5095138;28;19920;-70
2022/06/01 12:34:25;;;;;;;;;;;24.40;99.90;;;;;;5095375;28;19908;-69
2022/06/01 12:36:57;;;;;;;;;;;24.40;99.90;;;;;;5074359;28;19926;-70
2022/06/01 12:39:27;;;;;;;;;;;24.50;99.90;;;;;;5091947;28;19972;-69
2022/06/01 12:41:53;;;;;;;;;;;24.40;99.90;;;;;;5090743;28;20370;-70
2022/06/01 12:44:21;;;;;;;;;;;24.50;99.90;;;;;;5088566;28;19912;-70
2022/06/01 12:46:51;;;;;;;;;;;24.60;99.90;;;;;;5092881;28;20063;-69
2022/06/01 12:49:21;;;;;;;;;;;24.60;99.90;;;;;;5066592;28;19920;-69
2022/06/01 12:51:46;;;;;;;;;;;24.60;99.90;;;;;;5074441;28;19913;-69
2022/06/01 12:54:23;;;;;;;;;;;24.50;99.90;;;;;;5084575;28;19919;-70
2022/06/01 12:56:48;;;;;;;;;;;24.50;99.90;;;;;;5075406;28;19922;-69
2022/06/01 12:59:14;;;;;;;;;;;24.50;99.90;;;;;;5073371;28;19995;-69
2022/06/01 13:01:40;;;;;;;;;;;24.60;99.90;;;;;;5091578;28;19916;-70
2022/06/01 13:04:05;;;;;;;;;;;24.50;99.90;;;;;;5094243;28;20498;-70
2022/06/01 13:06:32;;;;;;;;;;;24.50;99.90;;;;;;5067560;28;19924;-69
2022/06/01 13:08:59;;;;;;;;;;;24.60;99.90;;;;;;5065712;28;19959;-69
2022/06/01 13:11:26;;;;;;;;;;;24.50;99.90;;;;;;5088683;28;19927;-70
2022/06/01 13:13:52;;;;;;;;;;;24.40;99.90;;;;;;5089314;28;19920;-70
2022/06/01 13:16:24;;;;;;;;;;;24.30;99.90;;;;;;5081750;28;20227;-70
2022/06/01 13:18:50;;;;;;;;;;;24.40;99.90;;;;;;5056231;28;19908;-69
2022/06/01 13:21:15;;;;;;;;;;;24.40;99.90;;;;;;5086717;28;20017;-70
2022/06/01 13:23:51;;;;;;;;;;;24.40;99.90;;;;;;5094008;28;20041;-70
2022/06/01 13:26:46;;;;;;;;;;;24.50;99.90;;;;;;5102753;28;19923;-70
2022/06/01 13:29:33;;;;;;;;;;;24.60;99.90;;;;;;5080754;28;19934;-70
2022/06/01 13:32:01;;;;;;;;;;;24.90;99.90;;;;;;5078524;28;19916;-69
2022/06/01 13:34:31;;;;;;;;;;;24.90;99.90;;;;;;5095154;28;19909;-69
2022/06/01 13:37:10;;;;;;;;;;;24.80;99.90;;;;;;5086538;28;19912;-70
2022/06/01 13:39:40;;;;;;;;;;;24.80;99.90;;;;;;5082346;28;19913;-71
2022/06/01 13:42:06;;;;;;;;;;;24.80;99.90;;;;;;5078626;28;19912;-70
2022/06/01 13:44:44;;;;;;;;;;;24.80;99.90;;;;;;5090556;28;20025;-70
2022/06/01 13:47:09;;;;;;;;;;;24.80;99.90;;;;;;5081760;28;19919;-70
2022/06/01 13:49:39;;;;;;;;;;;25.00;99.90;;;;;;5091309;28;19912;-70
2022/06/01 13:52:05;;;;;;;;;;;25.00;99.90;;;;;;5071558;28;19924;-69
2022/06/01 13:54:34;;;;;;;;;;;25.10;99.90;;;;;;5072474;28;19909;-71
2022/06/01 13:57:20;;;;;;;;;;;25.00;99.90;;;;;;5075672;28;19924;-68
2022/06/01 13:59:51;;;;;;;;;;;25.00;99.90;;;;;;5065600;28;19950;-70
2022/06/01 14:02:22;;;;;;;;;;;24.90;99.90;;;;;;5085625;28;20008;-70
2022/06/01 14:04:50;;;;;;;;;;;25.10;99.90;;;;;;5076474;28;20334;-70
2022/06/01 14:07:17;;;;;;;;;;;25.10;99.90;;;;;;5086668;28;20335;-69
2022/06/01 14:09:46;;;;;;;;;;;25.00;99.90;;;;;;5085125;28;19919;-69
2022/06/01 14:12:12;;;;;;;;;;;24.90;99.90;;;;;;5058402;28;20301;-70
2022/06/01 14:14:40;;;;;;;;;;;24.80;99.90;;;;;;5082134;28;19923;-69
2022/06/01 14:17:10;;;;;;;;;;;24.70;99.90;;;;;;5080252;28;19919;-69
2022/06/01 14:19:36;;;;;;;;;;;24.70;99.90;;;;;;5083038;28;19908;-69
2022/06/01 14:22:02;;;;;;;;;;;24.70;99.90;;;;;;5092534;28;19986;-68
2022/06/01 14:28:28;;;;;;;;;;;25.00;99.90;;;;;;5091873;28;19909;-69
2022/06/01 14:29:57;;;;;;;;;;;25.00;99.90;;;;;;5083546;28;19961;-70
2022/06/01 14:32:23;;;;;;;;;;;25.10;99.90;;;;;;5070339;28;20050;-69
2022/06/01 14:34:49;;;;;;;;;;;25.20;99.90;;;;;;5079864;28;20325;-69
2022/06/01 14:37:15;;;;;;;;;;;25.10;99.90;;;;;;5079823;28;19913;-69
2022/06/01 14:39:40;;;;;;;;;;;25.30;99.90;;;;;;5065714;28;19912;-69
2022/06/01 14:42:07;;;;;;;;;;;25.40;99.90;;;;;;5084049;28;19926;-71
2022/06/01 14:44:33;;;;;;;;;;;25.30;99.90;;;;;;5084709;28;20634;-69
2022/06/01 14:46:58;;;;;;;;;;;25.20;99.90;;;;;;5086741;28;19919;-70
2022/06/01 14:49:24;;;;;;;;;;;25.00;99.90;;;;;;5080830;28;19913;-70
2022/06/01 14:51:52;;;;;;;;;;;25.00;99.90;;;;;;5082402;28;19920;-69
2022/06/01 14:54:19;;;;;;;;;;;24.90;99.90;;;;;;5077502;28;19962;-70
2022/06/01 14:56:44;;;;;;;;;;;24.90;99.90;;;;;;5054273;28;19908;-72
2022/06/01 14:59:10;;;;;;;;;;;24.90;99.90;;;;;;5080481;28;20502;-70
2022/06/01 15:01:35;;;;;;;;;;;25.00;99.90;;;;;;5085558;28;19941;-71